sensor_id;sensor_type;location;lat;lon;timestamp;pressure;altitude;pressure_sealevel;temperature;humidity
11523;BME280;70090;43.208;27.904;2023-08-21T00:00:47;100783.63;;;25.28;64.07
11523;BME280;70090;43.208;27.904;2023-08-21T00:03:14;100783.97;;;25.21;64.23
11523;BME280;70090;43.208;27.904;2023-08-21T00:05:41;100773.59;;;25.18;66.11
11523;BME280;70090;43.208;27.904;2023-08-21T00:08:08;100779.84;;;25.13;66.57
11523;BME280;70090;43.208;27.904;2023-08-21T00:10:38;100783.91;;;25.03;68.67
11523;BME280;70090;43.208;27.904;2023-08-21T00:13:06;100789.53;;;25.03;69.50
11523;BME280;70090;43.208;27.904;2023-08-21T00:15:33;100791.75;;;25.08;69.98
11523;BME280;70090;43.208;27.904;2023-08-21T00:18:00;100778.28;;;25.12;70.62
11523;BME280;70090;43.208;27.904;2023-08-21T00:20:27;100790.50;;;25.09;70.02
11523;BME280;70090;43.208;27.904;2023-08-21T00:22:54;100776.44;;;25.09;67.98
11523;BME280;70090;43.208;27.904;2023-08-21T00:25:21;100788.44;;;25.00;67.20
11523;BME280;70090;43.208;27.904;2023-08-21T00:27:49;100785.16;;;24.93;63.64
11523;BME280;70090;43.208;27.904;2023-08-21T00:30:16;100780.16;;;24.88;62.45
11523;BME280;70090;43.208;27.904;2023-08-21T00:32:43;100782.50;;;24.98;62.90
11523;BME280;70090;43.208;27.904;2023-08-21T00:35:10;100788.44;;;24.91;61.07
11523;BME280;70090;43.208;27.904;2023-08-21T00:37:37;100778.25;;;24.94;59.41
11523;BME280;70090;43.208;27.904;2023-08-21T00:40:05;100783.59;;;24.92;57.67
11523;BME280;70090;43.208;27.904;2023-08-21T00:42:32;100795.78;;;24.89;58.82
11523;BME280;70090;43.208;27.904;2023-08-21T00:45:00;100788.59;;;24.88;58.29
11523;BME280;70090;43.208;27.904;2023-08-21T00:47:27;100789.19;;;24.83;57.92
11523;BME280;70090;43.208;27.904;2023-08-21T00:49:54;100791.06;;;24.86;58.70
11523;BME280;70090;43.208;27.904;2023-08-21T00:52:21;100783.25;;;24.81;59.96
11523;BME280;70090;43.208;27.904;2023-08-21T00:54:49;100790.91;;;24.80;63.58
11523;BME280;70090;43.208;27.904;2023-08-21T00:57:17;100797.31;;;24.72;65.77
11523;BME280;70090;43.208;27.904;2023-08-21T00:59:44;100786.50;;;24.61;67.49
11523;BME280;70090;43.208;27.904;2023-08-21T01:02:12;100778.13;;;24.49;70.80
11523;BME280;70090;43.208;27.904;2023-08-21T01:04:39;100792.25;;;24.58;71.81
11523;BME280;70090;43.208;27.904;2023-08-21T01:07:06;100787.56;;;24.64;72.65
11523;BME280;70090;43.208;27.904;2023-08-21T01:09:40;100785.56;;;24.64;70.63
11523;BME280;70090;43.208;27.904;2023-08-21T01:12:17;100785.75;;;24.39;70.39
11523;BME280;70090;43.208;27.904;2023-08-21T01:14:52;100788.41;;;24.43;68.83
11523;BME280;70090;43.208;27.904;2023-08-21T01:17:23;100783.44;;;24.47;67.10
11523;BME280;70090;43.208;27.904;2023-08-21T01:19:51;100792.66;;;24.47;65.93
11523;BME280;70090;43.208;27.904;2023-08-21T01:22:19;100783.19;;;24.63;65.71
11523;BME280;70090;43.208;27.904;2023-08-21T01:24:47;100772.94;;;24.78;64.24
11523;BME280;70090;43.208;27.904;2023-08-21T01:27:14;100781.88;;;24.94;63.27
11523;BME280;70090;43.208;27.904;2023-08-21T01:29:41;100775.16;;;25.01;62.65
11523;BME280;70090;43.208;27.904;2023-08-21T01:32:17;100777.94;;;24.92;62.56
11523;BME280;70090;43.208;27.904;2023-08-21T01:34:47;100788.88;;;24.81;60.88
11523;BME280;70090;43.208;27.904;2023-08-21T01:37:17;100779.31;;;24.78;58.77
11523;BME280;70090;43.208;27.904;2023-08-21T01:39:44;100784.66;;;24.85;58.40
11523;BME280;70090;43.208;27.904;2023-08-21T01:42:12;100788.78;;;25.02;57.27
11523;BME280;70090;43.208;27.904;2023-08-21T01:44:39;100788.16;;;25.07;57.46
11523;BME280;70090;43.208;27.904;2023-08-21T01:47:06;100779.22;;;25.00;59.55
11523;BME280;70090;43.208;27.904;2023-08-21T01:49:33;100794.41;;;25.11;61.50
11523;BME280;70090;43.208;27.904;2023-08-21T01:52:00;100788.94;;;24.99;62.56
11523;BME280;70090;43.208;27.904;2023-08-21T01:54:27;100791.69;;;24.81;63.37
11523;BME280;70090;43.208;27.904;2023-08-21T01:56:53;100789.50;;;24.76;62.44
11523;BME280;70090;43.208;27.904;2023-08-21T01:59:22;100796.34;;;24.75;60.42
11523;BME280;70090;43.208;27.904;2023-08-21T02:01:49;100782.91;;;24.70;60.24
11523;BME280;70090;43.208;27.904;2023-08-21T02:04:16;100788.88;;;24.81;58.90
11523;BME280;70090;43.208;27.904;2023-08-21T02:06:43;100780.16;;;24.88;58.92
11523;BME280;70090;43.208;27.904;2023-08-21T02:09:10;100788.25;;;24.86;58.95
11523;BME280;70090;43.208;27.904;2023-08-21T02:11:37;100793.38;;;24.69;58.71
11523;BME280;70090;43.208;27.904;2023-08-21T02:14:04;100787.56;;;24.55;59.23
11523;BME280;70090;43.208;27.904;2023-08-21T02:16:32;100794.06;;;24.52;60.54
11523;BME280;70090;43.208;27.904;2023-08-21T02:18:59;100795.81;;;24.49;60.00
11523;BME280;70090;43.208;27.904;2023-08-21T02:21:26;100786.06;;;24.41;61.57
11523;BME280;70090;43.208;27.904;2023-08-21T02:23:52;100794.03;;;24.34;64.26
11523;BME280;70090;43.208;27.904;2023-08-21T02:26:20;100781.75;;;24.19;66.05
11523;BME280;70090;43.208;27.904;2023-08-21T02:28:47;100788.81;;;24.23;64.32
11523;BME280;70090;43.208;27.904;2023-08-21T02:31:13;100783.63;;;24.22;65.71
11523;BME280;70090;43.208;27.904;2023-08-21T02:33:42;100787.19;;;24.13;65.59
11523;BME280;70090;43.208;27.904;2023-08-21T02:36:08;100794.50;;;24.02;67.57
11523;BME280;70090;43.208;27.904;2023-08-21T02:38:35;100800.25;;;23.98;68.66
11523;BME280;70090;43.208;27.904;2023-08-21T02:41:02;100790.63;;;23.87;73.01
11523;BME280;70090;43.208;27.904;2023-08-21T02:43:29;100784.09;;;23.90;76.24
11523;BME280;70090;43.208;27.904;2023-08-21T02:45:56;100798.75;;;23.85;76.82
11523;BME280;70090;43.208;27.904;2023-08-21T02:48:22;100790.41;;;23.81;75.17
11523;BME280;70090;43.208;27.904;2023-08-21T02:50:51;100783.47;;;23.73;72.61
11523;BME280;70090;43.208;27.904;2023-08-21T02:53:17;100796.44;;;23.71;73.06
11523;BME280;70090;43.208;27.904;2023-08-21T02:55:44;100786.25;;;23.64;74.36
11523;BME280;70090;43.208;27.904;2023-08-21T02:58:11;100792.31;;;23.63;76.14
11523;BME280;70090;43.208;27.904;2023-08-21T03:00:38;100804.69;;;23.65;79.09
11523;BME280;70090;43.208;27.904;2023-08-21T03:03:05;100797.50;;;23.64;79.99
11523;BME280;70090;43.208;27.904;2023-08-21T03:05:31;100804.19;;;23.67;81.28
11523;BME280;70090;43.208;27.904;2023-08-21T03:08:00;100797.34;;;23.68;81.27
11523;BME280;70090;43.208;27.904;2023-08-21T03:10:26;100799.50;;;23.64;82.82
11523;BME280;70090;43.208;27.904;2023-08-21T03:12:55;100798.75;;;23.63;80.58
11523;BME280;70090;43.208;27.904;2023-08-21T03:15:22;100807.22;;;23.72;77.96
11523;BME280;70090;43.208;27.904;2023-08-21T03:17:48;100799.56;;;23.73;78.13
11523;BME280;70090;43.208;27.904;2023-08-21T03:20:16;100813.81;;;23.78;78.20
11523;BME280;70090;43.208;27.904;2023-08-21T03:22:43;100821.66;;;23.83;77.11
11523;BME280;70090;43.208;27.904;2023-08-21T03:25:11;100808.34;;;23.96;75.29
11523;BME280;70090;43.208;27.904;2023-08-21T03:27:38;100812.63;;;24.10;75.78
11523;BME280;70090;43.208;27.904;2023-08-21T03:30:06;100817.25;;;24.25;74.97
11523;BME280;70090;43.208;27.904;2023-08-21T03:32:33;100821.22;;;24.37;74.07
11523;BME280;70090;43.208;27.904;2023-08-21T03:35:01;100821.25;;;24.46;73.59
11523;BME280;70090;43.208;27.904;2023-08-21T03:37:28;100825.50;;;24.50;74.56
11523;BME280;70090;43.208;27.904;2023-08-21T03:39:55;100815.00;;;24.51;73.24
11523;BME280;70090;43.208;27.904;2023-08-21T03:42:23;100831.00;;;24.54;72.88
11523;BME280;70090;43.208;27.904;2023-08-21T03:44:50;100815.53;;;24.58;73.34
11523;BME280;70090;43.208;27.904;2023-08-21T03:47:17;100803.97;;;24.56;73.35
11523;BME280;70090;43.208;27.904;2023-08-21T03:49:44;100819.50;;;24.70;73.10
11523;BME280;70090;43.208;27.904;2023-08-21T03:52:13;100821.53;;;24.69;74.15
11523;BME280;70090;43.208;27.904;2023-08-21T03:54:40;100822.50;;;24.75;73.39
11523;BME280;70090;43.208;27.904;2023-08-21T03:57:07;100822.66;;;24.81;73.53
11523;BME280;70090;43.208;27.904;2023-08-21T03:59:35;100823.94;;;24.89;73.75
11523;BME280;70090;43.208;27.904;2023-08-21T04:02:02;100818.94;;;24.93;73.69
11523;BME280;70090;43.208;27.904;2023-08-21T04:04:29;100836.31;;;25.00;73.13
11523;BME280;70090;43.208;27.904;2023-08-21T04:06:56;100831.19;;;25.08;73.92
11523;BME280;70090;43.208;27.904;2023-08-21T04:09:22;100829.31;;;25.14;73.31
11523;BME280;70090;43.208;27.904;2023-08-21T04:11:49;100833.06;;;25.20;73.58
11523;BME280;70090;43.208;27.904;2023-08-21T04:14:16;100835.94;;;25.29;72.94
11523;BME280;70090;43.208;27.904;2023-08-21T04:16:44;100830.78;;;25.36;71.94
11523;BME280;70090;43.208;27.904;2023-08-21T04:19:11;100826.22;;;25.48;72.58
11523;BME280;70090;43.208;27.904;2023-08-21T04:21:38;100827.63;;;25.43;72.47
11523;BME280;70090;43.208;27.904;2023-08-21T04:24:05;100832.00;;;25.44;72.76
11523;BME280;70090;43.208;27.904;2023-08-21T04:26:32;100830.28;;;25.47;73.71
11523;BME280;70090;43.208;27.904;2023-08-21T04:28:58;100825.31;;;25.51;73.94
11523;BME280;70090;43.208;27.904;2023-08-21T04:31:25;100834.38;;;25.64;73.06
11523;BME280;70090;43.208;27.904;2023-08-21T04:33:53;100833.88;;;25.74;72.24
11523;BME280;70090;43.208;27.904;2023-08-21T04:36:20;100830.28;;;25.83;71.67
11523;BME280;70090;43.208;27.904;2023-08-21T04:38:47;100826.84;;;25.88;70.25
11523;BME280;70090;43.208;27.904;2023-08-21T04:41:14;100827.00;;;25.93;71.72
11523;BME280;70090;43.208;27.904;2023-08-21T04:43:40;100829.34;;;25.85;72.07
11523;BME280;70090;43.208;27.904;2023-08-21T04:46:07;100827.94;;;25.81;73.70
11523;BME280;70090;43.208;27.904;2023-08-21T04:48:34;100832.78;;;25.80;73.81
11523;BME280;70090;43.208;27.904;2023-08-21T04:51:02;100834.19;;;25.85;73.43
11523;BME280;70090;43.208;27.904;2023-08-21T04:53:29;100836.09;;;25.79;73.62
11523;BME280;70090;43.208;27.904;2023-08-21T04:55:58;100836.56;;;25.77;73.96
11523;BME280;70090;43.208;27.904;2023-08-21T04:58:25;100843.91;;;25.75;73.81
11523;BME280;70090;43.208;27.904;2023-08-21T05:00:52;100832.47;;;25.78;74.43
11523;BME280;70090;43.208;27.904;2023-08-21T05:03:19;100841.56;;;25.83;76.11
11523;BME280;70090;43.208;27.904;2023-08-21T05:05:52;100833.56;;;25.81;75.33
11523;BME280;70090;43.208;27.904;2023-08-21T05:08:21;100825.56;;;25.79;74.67
11523;BME280;70090;43.208;27.904;2023-08-21T05:10:47;100834.97;;;25.85;73.70
11523;BME280;70090;43.208;27.904;2023-08-21T05:13:14;100837.69;;;25.89;72.67
11523;BME280;70090;43.208;27.904;2023-08-21T05:15:43;100840.00;;;25.99;73.58
11523;BME280;70090;43.208;27.904;2023-08-21T05:18:10;100836.72;;;26.01;72.61
11523;BME280;70090;43.208;27.904;2023-08-21T05:20:36;100857.22;;;26.10;72.18
11523;BME280;70090;43.208;27.904;2023-08-21T05:23:03;100842.81;;;26.08;72.06
11523;BME280;70090;43.208;27.904;2023-08-21T05:25:33;100847.31;;;26.15;70.98
11523;BME280;70090;43.208;27.904;2023-08-21T05:28:00;100850.44;;;26.26;70.75
11523;BME280;70090;43.208;27.904;2023-08-21T05:30:26;100846.84;;;26.25;70.17
11523;BME280;70090;43.208;27.904;2023-08-21T05:32:53;100840.34;;;26.43;68.73
11523;BME280;70090;43.208;27.904;2023-08-21T05:35:20;100851.41;;;26.64;68.93
11523;BME280;70090;43.208;27.904;2023-08-21T05:37:47;100852.47;;;26.76;68.30
11523;BME280;70090;43.208;27.904;2023-08-21T05:40:14;100852.91;;;26.83;68.33
11523;BME280;70090;43.208;27.904;2023-08-21T05:42:42;100856.06;;;26.76;67.65
11523;BME280;70090;43.208;27.904;2023-08-21T05:45:09;100858.34;;;26.96;69.26
11523;BME280;70090;43.208;27.904;2023-08-21T05:47:36;100852.56;;;26.90;69.84
11523;BME280;70090;43.208;27.904;2023-08-21T05:50:03;100845.22;;;27.07;68.08
11523;BME280;70090;43.208;27.904;2023-08-21T05:52:30;100859.97;;;27.11;69.50
11523;BME280;70090;43.208;27.904;2023-08-21T05:54:57;100863.59;;;27.35;68.53
11523;BME280;70090;43.208;27.904;2023-08-21T05:57:24;100853.88;;;27.36;67.30
11523;BME280;70090;43.208;27.904;2023-08-21T05:59:52;100854.56;;;27.46;65.54
11523;BME280;70090;43.208;27.904;2023-08-21T06:02:19;100850.72;;;27.72;65.03
11523;BME280;70090;43.208;27.904;2023-08-21T06:04:46;100857.44;;;27.98;63.55
11523;BME280;70090;43.208;27.904;2023-08-21T06:07:13;100858.41;;;28.24;61.31
11523;BME280;70090;43.208;27.904;2023-08-21T06:09:39;100865.19;;;28.41;62.27
11523;BME280;70090;43.208;27.904;2023-08-21T06:12:07;100867.81;;;28.30;62.66
11523;BME280;70090;43.208;27.904;2023-08-21T06:14:34;100876.19;;;28.25;62.43
11523;BME280;70090;43.208;27.904;2023-08-21T06:17:03;100873.47;;;28.30;62.19
11523;BME280;70090;43.208;27.904;2023-08-21T06:19:31;100879.72;;;28.63;60.94
11523;BME280;70090;43.208;27.904;2023-08-21T06:21:58;100881.28;;;28.64;61.08
11523;BME280;70090;43.208;27.904;2023-08-21T06:24:24;100876.19;;;28.68;60.38
11523;BME280;70090;43.208;27.904;2023-08-21T06:26:52;100878.72;;;28.80;59.19
11523;BME280;70090;43.208;27.904;2023-08-21T06:29:19;100873.91;;;28.86;59.18
11523;BME280;70090;43.208;27.904;2023-08-21T06:31:46;100881.13;;;29.02;59.24
11523;BME280;70090;43.208;27.904;2023-08-21T06:34:14;100884.66;;;28.97;59.24
11523;BME280;70090;43.208;27.904;2023-08-21T06:36:41;100894.59;;;29.07;59.25
11523;BME280;70090;43.208;27.904;2023-08-21T06:39:08;100891.22;;;29.23;57.91
11523;BME280;70090;43.208;27.904;2023-08-21T06:41:35;100890.25;;;29.46;56.97
11523;BME280;70090;43.208;27.904;2023-08-21T06:44:01;100886.59;;;29.60;56.71
11523;BME280;70090;43.208;27.904;2023-08-21T06:46:28;100905.16;;;29.61;57.77
11523;BME280;70090;43.208;27.904;2023-08-21T06:48:55;100896.56;;;29.75;56.45
11523;BME280;70090;43.208;27.904;2023-08-21T06:51:24;100884.28;;;29.84;54.51
11523;BME280;70090;43.208;27.904;2023-08-21T06:53:50;100892.16;;;29.94;54.42
11523;BME280;70090;43.208;27.904;2023-08-21T06:56:17;100892.56;;;30.07;54.16
11523;BME280;70090;43.208;27.904;2023-08-21T06:58:44;100892.25;;;30.25;52.72
11523;BME280;70090;43.208;27.904;2023-08-21T07:01:11;100888.78;;;30.41;52.86
11523;BME280;70090;43.208;27.904;2023-08-21T07:03:38;100884.25;;;30.55;52.69
11523;BME280;70090;43.208;27.904;2023-08-21T07:06:04;100881.88;;;30.79;51.11
11523;BME280;70090;43.208;27.904;2023-08-21T07:08:33;100885.63;;;30.96;49.95
11523;BME280;70090;43.208;27.904;2023-08-21T07:11:02;100883.91;;;31.09;48.78
11523;BME280;70090;43.208;27.904;2023-08-21T07:13:29;100892.44;;;31.09;48.65
11523;BME280;70090;43.208;27.904;2023-08-21T07:15:56;100882.88;;;31.12;48.60
11523;BME280;70090;43.208;27.904;2023-08-21T07:18:23;100887.66;;;31.26;47.99
11523;BME280;70090;43.208;27.904;2023-08-21T07:20:52;100893.66;;;31.39;47.63
11523;BME280;70090;43.208;27.904;2023-08-21T07:23:19;100891.94;;;31.58;47.46
11523;BME280;70090;43.208;27.904;2023-08-21T07:25:47;100888.13;;;31.72;47.38
11523;BME280;70090;43.208;27.904;2023-08-21T07:28:14;100892.31;;;31.87;47.28
11523;BME280;70090;43.208;27.904;2023-08-21T07:30:40;100888.25;;;31.99;46.99
11523;BME280;70090;43.208;27.904;2023-08-21T07:33:07;100886.69;;;32.09;46.72
11523;BME280;70090;43.208;27.904;2023-08-21T07:35:34;100876.63;;;32.19;45.77
11523;BME280;70090;43.208;27.904;2023-08-21T07:38:01;100877.13;;;32.12;45.52
11523;BME280;70090;43.208;27.904;2023-08-21T07:40:28;100879.44;;;32.14;45.57
11523;BME280;70090;43.208;27.904;2023-08-21T07:42:56;100882.03;;;32.06;45.87
11523;BME280;70090;43.208;27.904;2023-08-21T07:45:23;100878.91;;;32.04;46.81
11523;BME280;70090;43.208;27.904;2023-08-21T07:47:50;100885.72;;;32.23;47.12
11523;BME280;70090;43.208;27.904;2023-08-21T07:50:17;100880.78;;;32.29;47.81
11523;BME280;70090;43.208;27.904;2023-08-21T07:52:44;100874.59;;;32.58;48.38
11523;BME280;70090;43.208;27.904;2023-08-21T07:55:11;100884.44;;;32.35;47.88
11523;BME280;70090;43.208;27.904;2023-08-21T07:57:37;100887.28;;;32.35;47.12
11523;BME280;70090;43.208;27.904;2023-08-21T08:00:07;100884.94;;;32.45;46.00
11523;BME280;70090;43.208;27.904;2023-08-21T08:02:35;100879.78;;;32.54;46.21
11523;BME280;70090;43.208;27.904;2023-08-21T08:05:02;100877.94;;;32.62;46.04
11523;BME280;70090;43.208;27.904;2023-08-21T08:07:29;100867.88;;;32.78;44.39
11523;BME280;70090;43.208;27.904;2023-08-21T08:09:56;100880.81;;;32.84;45.12
11523;BME280;70090;43.208;27.904;2023-08-21T08:12:23;100882.09;;;32.89;45.28
11523;BME280;70090;43.208;27.904;2023-08-21T08:14:50;100885.19;;;33.13;43.96
11523;BME280;70090;43.208;27.904;2023-08-21T08:17:18;100879.72;;;33.26;43.64
11523;BME280;70090;43.208;27.904;2023-08-21T08:19:45;100869.34;;;33.34;44.37
11523;BME280;70090;43.208;27.904;2023-08-21T08:22:12;100880.19;;;33.41;43.31
11523;BME280;70090;43.208;27.904;2023-08-21T08:24:39;100882.94;;;33.63;43.05
11523;BME280;70090;43.208;27.904;2023-08-21T08:27:05;100879.81;;;33.66;43.35
11523;BME280;70090;43.208;27.904;2023-08-21T08:29:33;100878.31;;;33.54;43.06
11523;BME280;70090;43.208;27.904;2023-08-21T08:32:00;100877.13;;;33.28;41.81
11523;BME280;70090;43.208;27.904;2023-08-21T08:34:28;100873.75;;;33.35;41.94
11523;BME280;70090;43.208;27.904;2023-08-21T08:36:55;100859.34;;;33.62;41.23
11523;BME280;70090;43.208;27.904;2023-08-21T08:39:22;100865.53;;;33.77;41.61
11523;BME280;70090;43.208;27.904;2023-08-21T08:41:54;100866.47;;;33.96;40.92
11523;BME280;70090;43.208;27.904;2023-08-21T08:44:24;100851.28;;;34.12;41.13
11523;BME280;70090;43.208;27.904;2023-08-21T08:46:52;100863.22;;;34.51;40.99
11523;BME280;70090;43.208;27.904;2023-08-21T08:49:20;100854.97;;;35.01;38.87
11523;BME280;70090;43.208;27.904;2023-08-21T08:51:49;100844.25;;;35.31;37.19
11523;BME280;70090;43.208;27.904;2023-08-21T08:54:16;100849.22;;;35.73;36.53
11523;BME280;70090;43.208;27.904;2023-08-21T08:56:44;100847.41;;;36.07;35.65
11523;BME280;70090;43.208;27.904;2023-08-21T08:59:10;100841.22;;;36.21;34.66
11523;BME280;70090;43.208;27.904;2023-08-21T09:01:40;100835.44;;;36.40;33.78
11523;BME280;70090;43.208;27.904;2023-08-21T09:04:07;100835.44;;;36.40;31.42
11523;BME280;70090;43.208;27.904;2023-08-21T09:06:34;100836.00;;;36.51;31.66
11523;BME280;70090;43.208;27.904;2023-08-21T09:09:02;100834.44;;;36.50;31.63
11523;BME280;70090;43.208;27.904;2023-08-21T09:11:29;100833.69;;;36.50;31.40
11523;BME280;70090;43.208;27.904;2023-08-21T09:13:58;100827.06;;;36.73;31.03
11523;BME280;70090;43.208;27.904;2023-08-21T09:16:26;100833.78;;;36.89;31.31
11523;BME280;70090;43.208;27.904;2023-08-21T09:18:53;100832.47;;;36.90;31.13
11523;BME280;70090;43.208;27.904;2023-08-21T09:21:22;100833.81;;;37.02;31.82
11523;BME280;70090;43.208;27.904;2023-08-21T09:23:56;100832.06;;;37.25;31.47
11523;BME280;70090;43.208;27.904;2023-08-21T09:26:25;100834.25;;;37.06;31.28
11523;BME280;70090;43.208;27.904;2023-08-21T09:28:53;100827.53;;;37.16;31.16
11523;BME280;70090;43.208;27.904;2023-08-21T09:31:23;100819.91;;;37.19;31.63
11523;BME280;70090;43.208;27.904;2023-08-21T09:33:56;100818.72;;;37.27;31.98
11523;BME280;70090;43.208;27.904;2023-08-21T09:36:23;100827.63;;;37.50;31.08
11523;BME280;70090;43.208;27.904;2023-08-21T09:38:51;100822.97;;;37.47;32.13
11523;BME280;70090;43.208;27.904;2023-08-21T09:41:19;100816.25;;;37.31;32.62
11523;BME280;70090;43.208;27.904;2023-08-21T09:43:47;100826.31;;;37.51;32.15
11523;BME280;70090;43.208;27.904;2023-08-21T09:46:15;100813.78;;;37.74;30.93
11523;BME280;70090;43.208;27.904;2023-08-21T09:48:44;100818.13;;;37.88;30.51
11523;BME280;70090;43.208;27.904;2023-08-21T09:51:12;100825.97;;;38.00;29.72
11523;BME280;70090;43.208;27.904;2023-08-21T09:53:39;100818.63;;;38.12;29.74
11523;BME280;70090;43.208;27.904;2023-08-21T09:56:07;100821.63;;;38.27;29.74
11523;BME280;70090;43.208;27.904;2023-08-21T09:58:35;100812.66;;;38.10;29.05
11523;BME280;70090;43.208;27.904;2023-08-21T10:01:04;100806.06;;;38.02;29.77
11523;BME280;70090;43.208;27.904;2023-08-21T10:03:38;100810.69;;;37.72;30.10
11523;BME280;70090;43.208;27.904;2023-08-21T10:06:06;100808.81;;;37.74;30.15
11523;BME280;70090;43.208;27.904;2023-08-21T10:08:36;100803.91;;;37.82;30.08
11523;BME280;70090;43.208;27.904;2023-08-21T10:11:04;100802.34;;;37.94;30.19
11523;BME280;70090;43.208;27.904;2023-08-21T10:13:32;100805.03;;;38.13;29.24
11523;BME280;70090;43.208;27.904;2023-08-21T10:16:00;100802.09;;;38.26;28.90
11523;BME280;70090;43.208;27.904;2023-08-21T10:18:31;100801.75;;;38.29;29.22
11523;BME280;70090;43.208;27.904;2023-08-21T10:21:10;100793.31;;;38.31;29.41
11523;BME280;70090;43.208;27.904;2023-08-21T10:23:38;100795.84;;;38.14;30.05
11523;BME280;70090;43.208;27.904;2023-08-21T10:26:06;100800.91;;;38.21;30.85
11523;BME280;70090;43.208;27.904;2023-08-21T10:28:48;100807.06;;;38.25;30.47
11523;BME280;70090;43.208;27.904;2023-08-21T10:31:28;100801.50;;;38.40;28.72
11523;BME280;70090;43.208;27.904;2023-08-21T10:33:57;100805.81;;;38.54;28.57
11523;BME280;70090;43.208;27.904;2023-08-21T10:39:27;100792.59;;;38.79;27.68
11523;BME280;70090;43.208;27.904;2023-08-21T10:41:58;100808.00;;;38.89;27.14
11523;BME280;70090;43.208;27.904;2023-08-21T10:47:23;100799.59;;;38.91;27.02
11523;BME280;70090;43.208;27.904;2023-08-21T10:49:59;100795.06;;;39.03;27.41
11523;BME280;70090;43.208;27.904;2023-08-21T10:52:28;100794.38;;;39.18;26.92
11523;BME280;70090;43.208;27.904;2023-08-21T10:54:56;100786.00;;;39.27;27.59
11523;BME280;70090;43.208;27.904;2023-08-21T10:57:24;100781.00;;;39.28;27.63
11523;BME280;70090;43.208;27.904;2023-08-21T10:59:53;100784.31;;;39.32;27.49
11523;BME280;70090;43.208;27.904;2023-08-21T11:02:20;100789.13;;;39.37;27.44
11523;BME280;70090;43.208;27.904;2023-08-21T11:04:47;100786.81;;;39.35;28.28
11523;BME280;70090;43.208;27.904;2023-08-21T11:07:16;100790.22;;;39.26;32.64
11523;BME280;70090;43.208;27.904;2023-08-21T11:09:43;100795.16;;;38.90;39.63
11523;BME280;70090;43.208;27.904;2023-08-21T11:12:11;100789.41;;;38.62;43.76
11523;BME280;70090;43.208;27.904;2023-08-21T11:14:39;100799.81;;;38.32;47.11
11523;BME280;70090;43.208;27.904;2023-08-21T11:17:06;100795.22;;;38.08;47.98
11523;BME280;70090;43.208;27.904;2023-08-21T11:19:34;100804.25;;;37.79;51.84
11523;BME280;70090;43.208;27.904;2023-08-21T11:22:01;100795.66;;;37.66;52.60
11523;BME280;70090;43.208;27.904;2023-08-21T11:24:39;100800.91;;;37.55;54.09
11523;BME280;70090;43.208;27.904;2023-08-21T11:27:07;100793.38;;;37.39;55.06
11523;BME280;70090;43.208;27.904;2023-08-21T11:29:36;100795.31;;;37.10;56.08
11523;BME280;70090;43.208;27.904;2023-08-21T11:32:08;100802.22;;;36.76;56.64
11523;BME280;70090;43.208;27.904;2023-08-21T11:34:35;100795.56;;;36.68;58.90
11523;BME280;70090;43.208;27.904;2023-08-21T11:37:03;100797.22;;;36.19;61.97
11523;BME280;70090;43.208;27.904;2023-08-21T11:39:45;100796.94;;;35.85;62.25
11523;BME280;70090;43.208;27.904;2023-08-21T11:42:14;100796.75;;;35.96;61.38
11523;BME280;70090;43.208;27.904;2023-08-21T11:44:45;100797.94;;;35.88;61.10
11523;BME280;70090;43.208;27.904;2023-08-21T11:47:13;100798.00;;;36.01;60.83
11523;BME280;70090;43.208;27.904;2023-08-21T11:49:41;100799.84;;;36.17;60.49
11523;BME280;70090;43.208;27.904;2023-08-21T11:52:09;100793.28;;;36.35;59.82
11523;BME280;70090;43.208;27.904;2023-08-21T11:54:38;100794.78;;;36.54;60.31
11523;BME280;70090;43.208;27.904;2023-08-21T11:57:09;100795.75;;;36.57;61.11
11523;BME280;70090;43.208;27.904;2023-08-21T11:59:36;100795.72;;;36.44;62.50
11523;BME280;70090;43.208;27.904;2023-08-21T12:02:10;100789.56;;;36.40;62.78
11523;BME280;70090;43.208;27.904;2023-08-21T12:04:37;100796.28;;;36.11;63.79
11523;BME280;70090;43.208;27.904;2023-08-21T12:07:04;100793.03;;;36.20;62.89
11523;BME280;70090;43.208;27.904;2023-08-21T12:09:31;100803.47;;;36.49;60.62
11523;BME280;70090;43.208;27.904;2023-08-21T12:11:58;100799.81;;;36.48;59.61
11523;BME280;70090;43.208;27.904;2023-08-21T12:14:27;100801.94;;;36.48;59.22
11523;BME280;70090;43.208;27.904;2023-08-21T12:16:55;100797.84;;;36.56;60.09
11523;BME280;70090;43.208;27.904;2023-08-21T12:19:22;100804.13;;;36.42;60.75
11523;BME280;70090;43.208;27.904;2023-08-21T12:21:50;100807.72;;;36.29;61.83
11523;BME280;70090;43.208;27.904;2023-08-21T12:24:17;100810.69;;;36.05;62.45
11523;BME280;70090;43.208;27.904;2023-08-21T12:26:44;100806.00;;;35.89;63.08
11523;BME280;70090;43.208;27.904;2023-08-21T12:29:11;100805.75;;;35.87;63.64
11523;BME280;70090;43.208;27.904;2023-08-21T12:31:39;100810.28;;;35.83;64.18
11523;BME280;70090;43.208;27.904;2023-08-21T12:34:06;100800.34;;;35.84;64.35
11523;BME280;70090;43.208;27.904;2023-08-21T12:36:34;100791.16;;;36.04;63.61
11523;BME280;70090;43.208;27.904;2023-08-21T12:39:02;100803.13;;;35.89;64.58
11523;BME280;70090;43.208;27.904;2023-08-21T12:41:30;100801.25;;;35.92;64.46
11523;BME280;70090;43.208;27.904;2023-08-21T12:43:58;100800.19;;;35.95;64.68
11523;BME280;70090;43.208;27.904;2023-08-21T12:46:25;100799.06;;;36.16;63.66
11523;BME280;70090;43.208;27.904;2023-08-21T12:48:54;100803.66;;;36.38;63.30